Time;durP1;ratioP1;P1;durP2;ratioP2;P2;SDS_P1;SDS_P2;PMS_P1;PMS_P2;Temp;Humidity;BMP_temperature;BMP_pressure;BME280_temperature;BME280_humidity;BME280_pressure;Samples;Min_cycle;Max_cycle;Signal;HPM_P1;HPM_P2
2020/12/22 00:01:02;;;;;;;36.88;16.02;;;;;;;1.07;66.87;103193.31;1746335;82;21326;-80
2020/12/22 00:03:34;;;;;;;32.37;16.73;;;;;;;1.04;66.98;103185.36;1745859;81;21321;-81
2020/12/22 00:06:08;;;;;;;43.45;18.67;;;;;;;1.02;67.10;103193.34;1746280;82;21290;-81
2020/12/22 00:08:41;;;;;;;46.77;17.98;;;;;;;1.02;66.72;103194.22;1746223;81;21318;-81
2020/12/22 00:11:14;;;;;;;33.92;17.92;;;;;;;1.01;66.53;103188.87;1746377;82;21330;-81
2020/12/22 00:13:47;;;;;;;39.08;16.17;;;;;;;1.00;66.59;103181.69;1745935;82;21184;-82
2020/12/22 00:16:20;;;;;;;;;;;;;;;1.03;66.75;103185.49;1748398;82;21337;-82
2020/12/22 00:18:52;;;;;;;41.70;14.87;;;;;;;1.04;66.61;103198.19;1743434;80;20627;-81
2020/12/22 00:21:25;;;;;;;38.07;17.67;;;;;;;1.05;66.82;103189.83;1736160;81;21323;-80
2020/12/22 00:23:58;;;;;;;39.87;15.57;;;;;;;1.10;66.92;103193.54;1736558;82;21165;-80
2020/12/22 00:26:30;;;;;;;34.97;15.23;;;;;;;1.14;66.73;103192.23;1736331;81;21196;-80
2020/12/22 00:29:03;;;;;;;38.28;15.60;;;;;;;1.17;66.37;103185.98;1736504;82;21170;-80
2020/12/22 00:31:39;;;;;;;38.83;16.62;;;;;;;1.22;66.55;103185.60;1736299;82;21217;-81
2020/12/22 00:34:11;;;;;;;40.77;15.07;;;;;;;1.28;66.50;103188.63;1736244;81;21653;-82
2020/12/22 00:36:44;;;;;;;27.82;13.85;;;;;;;1.33;66.34;103179.99;1736332;81;21165;-81
2020/12/22 00:39:18;;;;;;;34.08;16.62;;;;;;;1.35;66.26;103183.48;1736752;82;21182;-81
2020/12/22 00:41:54;;;;;;;;;;;;;;;1.36;66.02;103185.20;1739320;82;21209;-81
2020/12/22 00:44:28;;;;;;;32.63;16.00;;;;;;;1.39;65.72;103186.28;1738443;82;20261;-80
2020/12/22 00:47:01;;;;;;;30.52;14.23;;;;;;;1.39;65.71;103183.54;1719562;82;21670;-78
2020/12/22 00:49:34;;;;;;;32.67;16.53;;;;;;;1.38;65.69;103185.43;1736239;82;21181;-78
2020/12/22 00:52:07;;;;;;;35.38;16.25;;;;;;;1.38;65.81;103176.34;1736505;82;21173;-78
2020/12/22 00:54:42;;;;;;;33.20;16.87;;;;;;;1.37;65.80;103179.60;1736118;82;21188;-78
2020/12/22 00:57:17;;;;;;;30.60;15.20;;;;;;;1.35;65.97;103172.02;1736329;82;21696;-78
2020/12/22 00:59:51;;;;;;;33.73;17.43;;;;;;;1.37;66.12;103170.52;1730351;81;21392;-79
2020/12/22 01:02:24;;;;;;;34.73;17.60;;;;;;;1.37;65.88;103170.52;1736090;81;21196;-78
2020/12/22 01:04:57;;;;;;;34.67;17.10;;;;;;;1.32;65.84;103172.31;1736304;82;21359;-78
2020/12/22 01:07:30;;;;;;;34.07;17.20;;;;;;;1.32;66.10;103177.78;1736260;82;21185;-80
2020/12/22 01:10:03;;;;;;;29.85;15.35;;;;;;;1.35;66.22;103167.06;1736580;81;21234;-78
2020/12/22 01:12:37;;;;;;;33.60;16.77;;;;;;;1.37;66.37;103163.19;1735939;81;21178;-77
2020/12/22 01:15:09;;;;;;;35.13;16.17;;;;;;;1.39;65.89;103165.27;1736132;81;21201;-78
2020/12/22 01:17:42;;;;;;;30.30;16.02;;;;;;;1.33;65.95;103160.84;1736208;82;21200;-78
2020/12/22 01:20:15;;;;;;;28.87;15.10;;;;;;;1.33;66.28;103166.31;1736202;82;21264;-78
2020/12/22 01:22:48;;;;;;;32.58;17.67;;;;;;;1.31;66.13;103162.37;1736564;82;21233;-79
2020/12/22 01:25:20;;;;;;;29.27;15.00;;;;;;;1.30;66.37;103155.67;1736464;82;21724;-79
2020/12/22 01:27:55;;;;;;;30.23;16.27;;;;;;;1.29;66.35;103160.78;1736340;82;21882;-82
2020/12/22 01:30:27;;;;;;;33.77;16.57;;;;;;;1.32;66.40;103160.48;1736911;82;21201;-82
2020/12/22 01:33:00;;;;;;;32.95;16.60;;;;;;;1.32;66.57;103164.10;1731178;82;21332;-81
2020/12/22 01:35:34;;;;;;;36.40;16.83;;;;;;;1.37;66.61;103156.83;1723590;81;21332;-81
2020/12/22 01:38:07;;;;;;;40.27;18.17;;;;;;;1.39;66.75;103154.81;1736286;82;21173;-81
2020/12/22 01:40:40;;;;;;;38.15;17.90;;;;;;;1.42;66.70;103146.34;1736598;82;21248;-80
2020/12/22 01:43:13;;;;;;;37.60;19.15;;;;;;;1.39;66.80;103150.70;1733368;81;21201;-81
2020/12/22 01:45:46;;;;;;;35.07;18.57;;;;;;;1.35;66.92;103152.02;1736492;82;21327;-81
2020/12/22 01:48:18;;;;;;;33.83;18.00;;;;;;;1.35;67.11;103152.02;1736395;82;21260;-81
2020/12/22 01:50:51;;;;;;;43.07;19.70;;;;;;;1.34;67.17;103151.14;1736439;82;21188;-81
2020/12/22 01:53:26;;;;;;;40.87;20.23;;;;;;;1.36;67.31;103148.27;1736143;82;21703;-80
2020/12/22 01:55:58;;;;;;;32.13;17.05;;;;;;;1.37;67.39;103148.63;1736204;82;21316;-79
2020/12/22 01:58:31;;;;;;;27.57;15.03;;;;;;;1.37;67.51;103147.25;1736343;81;21724;-79
2020/12/22 02:01:03;;;;;;;35.80;17.60;;;;;;;1.33;67.59;103136.22;1736425;82;21196;-80
2020/12/22 02:03:36;;;;;;;40.57;19.23;;;;;;;1.26;67.90;103137.30;1736687;82;21661;-80
2020/12/22 02:06:09;;;;;;;46.30;21.62;;;;;;;1.23;68.16;103129.88;1736615;82;21403;-81
2020/12/22 02:08:42;;;;;;;34.93;17.20;;;;;;;1.22;68.45;103133.62;1736276;82;21241;-79
2020/12/22 02:11:27;;;;;;;30.30;17.55;;;;;;;1.18;68.64;103145.84;1736287;81;21184;-80
2020/12/22 02:14:02;;;;;;;31.00;15.87;;;;;;;1.16;69.06;103139.66;1735897;82;21652;-80
2020/12/22 02:16:35;;;;;;;33.80;18.57;;;;;;;1.20;69.17;103139.23;1736228;82;21182;-80
2020/12/22 02:19:10;;;;;;;29.97;15.80;;;;;;;1.23;69.23;103143.56;1732475;82;21355;-81
2020/12/22 02:21:43;;;;;;;24.07;14.38;;;;;;;1.24;69.30;103139.81;1736353;82;21205;-81
2020/12/22 02:24:15;;;;;;;22.47;12.73;;;;;;;1.25;69.21;103138.80;1736811;82;21248;-81
2020/12/22 02:26:49;;;;;;;24.23;13.88;;;;;;;1.22;69.25;103144.57;1736662;81;21228;-80
2020/12/22 02:29:22;;;;;;;25.95;14.55;;;;;;;1.18;69.43;103143.95;1736767;81;21692;-80
2020/12/22 02:31:55;;;;;;;34.90;16.20;;;;;;;1.14;69.61;103138.91;1736625;82;21185;-80
2020/12/22 02:34:28;;;;;;;27.87;15.20;;;;;;;1.09;69.86;103142.55;1719899;82;21249;-80
2020/12/22 02:37:01;;;;;;;28.65;16.10;;;;;;;1.01;70.10;103136.92;1735349;82;21209;-82
2020/12/22 02:39:33;;;;;;;27.33;15.60;;;;;;;0.97;70.34;103132.23;1707097;84;21437;-80
2020/12/22 02:42:06;;;;;;;27.93;15.53;;;;;;;0.96;70.68;103133.24;1707016;84;21217;-80
2020/12/22 02:44:39;;;;;;;26.23;14.65;;;;;;;0.96;70.80;103131.00;1707074;84;21760;-80
2020/12/22 02:47:15;;;;;;;26.27;14.80;;;;;;;0.97;70.93;103126.77;1707062;82;21327;-79
2020/12/22 02:49:50;;;;;;;27.60;15.00;;;;;;;1.01;70.92;103135.55;1706986;84;21744;-80
2020/12/22 02:52:23;;;;;;;27.87;15.53;;;;;;;0.98;71.14;103134.48;1706958;84;21359;-80
2020/12/22 02:54:57;;;;;;;26.80;14.83;;;;;;;0.94;71.37;103134.38;1706812;83;21189;-80
2020/12/22 02:57:30;;;;;;;28.83;15.23;;;;;;;0.95;71.53;103136.11;1707160;84;21276;-79
2020/12/22 03:00:02;;;;;;;24.90;15.07;;;;;;;0.94;71.59;103134.38;1707127;84;21319;-80
2020/12/22 03:02:35;;;;;;;33.13;15.37;;;;;;;0.95;71.78;103130.15;1707311;84;21185;-80
2020/12/22 03:05:07;;;;;;;24.40;14.87;;;;;;;0.97;71.82;103134.09;1707187;84;21384;-80
2020/12/22 03:07:40;;;;;;;28.47;14.20;;;;;;;1.00;71.85;103128.36;1707139;82;21374;-80
2020/12/22 03:10:14;;;;;;;30.68;15.38;;;;;;;0.99;71.90;103126.63;1707247;84;21692;-80
2020/12/22 03:12:49;;;;;;;26.90;15.10;;;;;;;0.99;72.03;103132.95;1706788;84;21332;-79
2020/12/22 03:15:21;;;;;;;;;;;;;;;0.97;72.02;103125.40;1710442;84;21208;-78
2020/12/22 03:17:54;;;;;;;31.77;15.47;;;;;;;0.95;72.23;103125.17;1696823;85;20203;-79
2020/12/22 03:20:26;;;;;;;34.03;17.20;;;;;;;0.94;72.39;103124.81;1707097;84;21244;-80
2020/12/22 03:22:59;;;;;;;31.13;16.60;;;;;;;0.97;72.47;103129.98;1705812;83;21383;-80
2020/12/22 03:25:32;;;;;;;32.87;16.93;;;;;;;0.97;72.27;103124.03;1716156;83;21692;-80
2020/12/22 03:28:04;;;;;;;28.17;15.00;;;;;;;0.97;72.44;103125.40;1716296;83;21209;-78
2020/12/22 03:30:37;;;;;;;28.47;16.07;;;;;;;0.92;72.48;103123.58;1716057;83;21202;-78
2020/12/22 03:33:11;;;;;;;29.60;15.93;;;;;;;0.90;72.66;103110.56;1727204;82;21824;-78
2020/12/22 03:35:44;;;;;;;32.63;16.50;;;;;;;0.93;72.75;103120.35;1747190;82;21320;-78
2020/12/22 03:38:16;;;;;;;26.97;15.68;;;;;;;0.91;72.80;103119.60;1748221;82;21316;-78
2020/12/22 03:40:50;;;;;;;31.42;16.93;;;;;;;0.90;72.73;103114.66;1748088;82;21221;-78
2020/12/22 03:43:23;;;;;;;34.43;18.27;;;;;;;0.93;72.66;103118.98;1748136;82;21209;-77
2020/12/22 03:45:57;;;;;;;28.57;17.57;;;;;;;0.94;72.57;103112.51;1748235;82;21235;-79
2020/12/22 03:48:30;;;;;;;32.23;17.43;;;;;;;0.93;72.63;103120.35;1747857;82;21221;-77
2020/12/22 03:51:02;;;;;;;30.60;16.33;;;;;;;0.94;72.64;103123.45;1748244;82;21680;-78
2020/12/22 03:53:35;;;;;;;32.65;17.40;;;;;;;1.01;72.71;103127.35;1748083;82;21174;-78
2020/12/22 03:56:08;;;;;;;29.43;16.47;;;;;;;1.09;72.62;103124.78;1748211;82;21328;-81
2020/12/22 03:58:40;;;;;;;29.48;16.50;;;;;;;1.11;72.36;103115.95;1748394;82;21369;-81
2020/12/22 04:01:14;;;;;;;30.80;16.65;;;;;;;1.09;72.29;103126.14;1748175;82;21194;-85
2020/12/22 04:03:47;;;;;;;34.43;17.00;;;;;;;1.06;72.49;103125.92;1748212;82;21206;-80
2020/12/22 04:06:21;;;;;;;27.37;15.65;;;;;;;1.05;72.50;103124.72;1748317;82;21352;-81
2020/12/22 04:08:54;;;;;;;31.87;17.07;;;;;;;1.00;72.59;103126.47;1748222;82;21776;-80
2020/12/22 04:11:27;;;;;;;31.23;17.53;;;;;;;0.97;72.73;103122.66;1748235;82;21324;-82
2020/12/22 04:14:00;;;;;;;32.88;17.80;;;;;;;0.96;72.72;103127.77;1748176;82;21471;-81
2020/12/22 04:16:33;;;;;;;31.70;17.83;;;;;;;1.01;72.86;103124.62;1748002;82;21228;-80
2020/12/22 04:19:06;;;;;;;30.30;16.87;;;;;;;1.02;72.20;103129.08;1748134;82;21359;-80
2020/12/22 04:21:40;;;;;;;33.50;16.87;;;;;;;0.98;71.58;103127.13;1747859;82;21244;-81
2020/12/22 04:24:12;;;;;;;28.67;16.37;;;;;;;0.97;71.42;103121.78;1748168;82;21178;-81
2020/12/22 04:26:45;;;;;;;28.43;15.73;;;;;;;0.96;70.75;103129.14;1748498;82;21318;-80
2020/12/22 04:29:17;;;;;;;26.13;15.37;;;;;;;0.92;70.41;103136.40;1748496;82;21669;-79
2020/12/22 04:31:50;;;;;;;24.23;13.40;;;;;;;0.89;70.16;103121.63;1748278;82;21398;-79
2020/12/22 04:34:25;;;;;;;34.83;16.12;;;;;;;0.90;69.86;103128.81;1747105;82;21230;-80
2020/12/22 04:36:57;;;;;;;29.70;16.10;;;;;;;0.89;69.84;103125.23;1747424;82;21784;-80
2020/12/22 04:39:30;;;;;;;31.30;15.63;;;;;;;0.90;70.06;103121.48;1748411;82;21878;-80
2020/12/22 04:42:03;;;;;;;32.48;16.00;;;;;;;0.93;70.06;103124.45;1748208;82;21815;-77
2020/12/22 04:44:36;;;;;;;31.30;16.62;;;;;;;0.91;70.14;103121.84;1748036;82;21162;-77
2020/12/22 04:47:10;;;;;;;25.90;13.77;;;;;;;0.88;70.01;103122.63;1747934;82;21309;-77
2020/12/22 04:49:47;;;;;;;29.70;14.97;;;;;;;0.87;70.02;103125.00;1747861;82;21685;-77
2020/12/22 04:52:20;;;;;;;31.47;14.17;;;;;;;0.86;69.98;103116.45;1748133;82;21304;-78
2020/12/22 04:54:54;;;;;;;33.23;15.77;;;;;;;0.87;70.11;103115.44;1747928;82;21201;-79
2020/12/22 04:57:32;;;;;;;36.38;15.68;;;;;;;0.91;70.26;103121.84;1748171;82;21359;-77
2020/12/22 05:00:05;;;;;;;29.43;16.30;;;;;;;0.95;70.29;103116.97;1747799;82;21286;-77
2020/12/22 05:02:38;;;;;;;28.95;16.10;;;;;;;0.97;70.30;103123.16;1748058;82;21241;-76
2020/12/22 05:05:12;;;;;;;37.73;16.70;;;;;;;0.99;70.30;103117.91;1748124;82;21368;-78
2020/12/22 05:07:45;;;;;;;30.85;15.20;;;;;;;1.01;70.40;103113.19;1748062;82;21189;-78
2020/12/22 05:10:17;;;;;;;28.55;14.98;;;;;;;1.03;70.33;103125.33;1748526;82;21355;-78
2020/12/22 05:12:50;;;;;;;29.90;17.17;;;;;;;1.04;70.25;103122.47;1748213;82;21236;-78
2020/12/22 05:15:23;;;;;;;35.23;16.33;;;;;;;1.06;70.38;103116.87;1748448;82;21320;-78
2020/12/22 05:17:57;;;;;;;24.27;14.80;;;;;;;1.07;70.44;103111.75;1698109;82;21312;-78
2020/12/22 05:20:30;;;;;;;25.93;14.27;;;;;;;1.05;70.39;103121.45;1697870;82;21384;-77
2020/12/22 05:23:03;;;;;;;27.20;15.40;;;;;;;1.00;70.07;103114.69;1721542;82;21316;-78
2020/12/22 05:25:36;;;;;;;24.12;13.25;;;;;;;0.94;69.99;103119.34;1721482;82;21324;-76
2020/12/22 05:28:09;;;;;;;26.60;14.85;;;;;;;0.94;69.95;103111.14;1748140;82;21303;-77
2020/12/22 05:30:42;;;;;;;23.73;13.83;;;;;;;0.96;69.65;103117.33;1748088;82;21218;-76
2020/12/22 05:33:15;;;;;;;27.30;12.75;;;;;;;0.98;69.48;103111.23;1748056;82;21843;-78
2020/12/22 05:35:48;;;;;;;;;;;;;;;0.95;69.09;103115.11;1750460;82;21197;-77
2020/12/22 05:38:21;;;;;;;26.73;14.47;;;;;;;0.90;69.04;103112.41;1748244;82;20300;-80
2020/12/22 05:40:55;;;;;;;28.87;14.13;;;;;;;0.86;69.03;103117.30;1748169;82;21229;-77
2020/12/22 05:43:27;;;;;;;30.45;15.95;;;;;;;0.81;69.27;103111.37;1715878;82;21364;-79
2020/12/22 05:46:01;;;;;;;31.67;15.77;;;;;;;0.77;69.34;103110.42;1744904;82;21836;-73
2020/12/22 05:48:33;;;;;;;37.30;17.37;;;;;;;0.75;69.47;103110.55;1689444;83;21336;-78
2020/12/22 05:51:07;;;;;;;37.70;17.32;;;;;;;0.74;69.67;103109.34;1690148;83;21332;-82
2020/12/22 05:53:44;;;;;;;38.33;18.00;;;;;;;0.72;69.87;103109.96;1706809;83;21321;-78
2020/12/22 05:56:18;;;;;;;36.07;17.13;;;;;;;0.73;69.84;103111.20;1733590;82;21322;-76
2020/12/22 05:58:51;;;;;;;41.23;18.00;;;;;;;0.73;69.91;103114.42;1719821;83;21730;-77
2020/12/22 06:01:35;;;;;;;36.77;16.32;;;;;;;0.74;70.01;103109.34;1731457;82;21856;-79
2020/12/22 06:04:08;;;;;;;43.73;17.98;;;;;;;0.73;70.04;103113.05;1722548;83;21830;-78
2020/12/22 06:06:40;;;;;;;42.90;19.93;;;;;;;0.71;70.10;103116.44;1692040;82;21745;-78
2020/12/22 06:09:13;;;;;;;42.37;20.77;;;;;;;0.74;70.29;103118.91;1720850;83;21237;-79
2020/12/22 06:11:47;;;;;;;42.43;20.20;;;;;;;0.77;70.33;103119.98;1721404;83;21378;-77
2020/12/22 06:14:25;;;;;;;45.83;22.63;;;;;;;0.77;70.41;103122.23;1721770;83;21230;-76
2020/12/22 06:17:10;;;;;;;44.50;20.87;;;;;;;0.79;70.49;103123.44;1721638;83;21344;-81
2020/12/22 06:19:44;;;;;;;53.67;23.53;;;;;;;0.82;70.51;103128.65;1721638;83;21202;-81
2020/12/22 06:22:18;;;;;;;46.93;22.13;;;;;;;0.83;70.48;103119.44;1721543;83;21353;-81
2020/12/22 06:24:55;;;;;;;57.83;23.37;;;;;;;0.84;70.28;103121.16;1721661;83;21290;-83
2020/12/22 06:27:33;;;;;;;63.17;26.53;;;;;;;0.80;70.33;103120.58;1721412;82;21458;-78
2020/12/22 06:30:06;;;;;;;52.47;24.23;;;;;;;0.81;70.50;103127.77;1721710;83;21230;-79
2020/12/22 06:32:38;;;;;;;57.03;23.42;;;;;;;0.89;70.71;103123.87;1721533;83;21202;-83
2020/12/22 06:35:29;;;;;;;60.53;23.37;;;;;;;1.01;70.19;103124.13;1721840;83;21230;-78
2020/12/22 06:38:02;;;;;;;52.63;23.43;;;;;;;1.01;70.19;103124.13;1722583;83;21936;-79
2020/12/22 06:40:57;;;;;;;48.65;23.15;;;;;;;1.04;70.37;103110.16;1713096;83;21488;-80
2020/12/22 06:43:45;;;;;;;49.07;22.00;;;;;;;1.09;70.40;103116.57;1714017;83;21359;-79
2020/12/22 06:46:38;;;;;;;46.13;21.13;;;;;;;1.14;70.39;103109.70;1711953;83;21193;-79
2020/12/22 06:49:11;;;;;;;58.17;25.32;;;;;;;1.20;70.45;103111.00;1718717;83;21829;-80
2020/12/22 06:51:45;;;;;;;76.70;31.17;;;;;;;1.26;70.25;103107.70;1724708;83;21749;-80
2020/12/22 06:54:29;;;;;;;67.70;28.92;;;;;;;1.28;70.17;103113.39;1712313;83;21364;-80
2020/12/22 06:57:04;;;;;;;67.00;30.45;;;;;;;1.28;70.06;103113.92;1723735;83;22285;-79
2020/12/22 06:59:47;;;;;;;55.27;26.20;;;;;;;1.28;69.98;103107.08;1725261;83;21741;-78
2020/12/22 07:02:31;;;;;;;54.53;25.43;;;;;;;1.29;69.98;103106.06;1721680;82;21215;-80
2020/12/22 07:05:06;;;;;;;63.35;28.67;;;;;;;1.29;70.03;103121.95;1721613;83;21804;-79
2020/12/22 07:08:01;;;;;;;56.70;24.60;;;;;;;1.30;69.97;103115.48;1721672;83;21336;-79
2020/12/22 07:10:47;;;;;;;58.30;25.50;;;;;;;1.29;70.07;103111.53;1685434;83;21729;-79
2020/12/22 07:13:20;;;;;;;65.63;24.80;;;;;;;1.30;70.21;103107.80;1706960;83;21863;-79
2020/12/22 07:15:54;;;;;;;56.23;25.77;;;;;;;1.33;70.12;103107.49;1721535;83;21757;-79
2020/12/22 07:18:34;;;;;;;51.48;21.73;;;;;;;1.33;70.01;103101.53;1670994;83;21202;-79
2020/12/22 07:21:06;;;;;;;49.03;21.77;;;;;;;1.36;70.06;103103.12;1721835;83;21225;-80
2020/12/22 07:23:39;;;;;;;51.93;22.43;;;;;;;1.40;70.12;103102.69;1721992;83;21620;-79
2020/12/22 07:26:12;;;;;;;57.75;24.82;;;;;;;1.41;69.98;103105.78;1671825;83;21348;-80
2020/12/22 07:28:44;;;;;;;56.08;23.05;;;;;;;1.45;69.95;103100.89;1692269;85;21876;-80
2020/12/22 07:31:20;;;;;;;48.93;22.13;;;;;;;1.48;69.64;103107.46;1641594;86;21269;-80
2020/12/22 07:33:54;;;;;;;43.30;19.60;;;;;;;1.48;69.64;103107.46;1664049;86;21630;-80
2020/12/22 07:36:27;;;;;;;60.92;26.25;;;;;;;1.48;69.69;103100.63;1664350;86;21741;-80
2020/12/22 07:39:27;;;;;;;47.67;22.43;;;;;;;1.47;69.80;103112.58;1664580;86;21221;-81
2020/12/22 07:42:11;;;;;;;49.57;22.13;;;;;;;1.45;69.87;103102.26;1691833;85;21368;-81
2020/12/22 07:44:45;;;;;;;54.65;25.32;;;;;;;1.43;69.90;103107.02;1664250;86;21217;-80
2020/12/22 07:47:18;;;;;;;49.10;23.03;;;;;;;1.41;70.09;103104.41;1673945;84;21259;-81
2020/12/22 07:49:50;;;;;;;58.20;24.23;;;;;;;1.41;70.05;103106.30;1707729;83;21395;-81
2020/12/22 07:52:24;;;;;;;61.42;27.50;;;;;;;1.41;70.13;103106.30;1673489;86;21275;-79
2020/12/22 07:55:00;;;;;;;51.18;23.67;;;;;;;1.40;70.24;103107.28;1716353;83;21361;-80
2020/12/22 07:57:34;;;;;;;58.20;26.13;;;;;;;1.46;70.41;103103.98;1720363;83;21193;-80
2020/12/22 08:00:10;;;;;;;47.90;21.70;;;;;;;1.50;70.12;103104.95;1688780;84;21391;-81
2020/12/22 08:02:43;;;;;;;53.30;23.50;;;;;;;1.48;69.91;103104.73;1714097;83;21875;-81
2020/12/22 08:05:17;;;;;;;48.93;23.73;;;;;;;1.47;69.93;103103.00;1698009;84;21547;-79
2020/12/22 08:07:53;;;;;;;48.48;23.92;;;;;;;1.43;70.09;103097.44;1684972;84;21219;-80
2020/12/22 08:10:26;;;;;;;52.40;26.13;;;;;;;1.41;70.22;103100.83;1708443;83;21329;-79
2020/12/22 08:12:58;;;;;;;52.80;22.65;;;;;;;1.42;70.35;103095.20;1694220;84;21412;-79
2020/12/22 08:15:31;;;;;;;63.67;26.97;;;;;;;1.46;70.28;103101.25;1701417;84;21399;-79
2020/12/22 08:18:04;;;;;;;64.37;26.95;;;;;;;1.48;70.23;103092.41;1701483;84;21843;-79
2020/12/22 08:20:38;;;;;;;66.37;27.05;;;;;;;1.50;70.26;103092.63;1662649;86;21877;-79
2020/12/22 08:23:12;;;;;;;59.83;25.57;;;;;;;1.54;70.32;103095.95;1694828;85;21344;-80
2020/12/22 08:25:46;;;;;;;61.70;28.50;;;;;;;1.57;70.18;103099.27;1664084;86;21336;-78
2020/12/22 08:28:26;;;;;;;57.93;26.40;;;;;;;1.57;70.23;103094.27;1710327;83;21215;-79
2020/12/22 08:31:15;;;;;;;54.77;23.70;;;;;;;1.59;70.33;103090.39;1711286;84;21397;-78
2020/12/22 08:33:56;;;;;;;61.63;25.03;;;;;;;1.66;70.28;103089.33;1746736;81;21377;-79
2020/12/22 08:36:29;;;;;;;50.33;22.70;;;;;;;1.70;70.13;103084.78;1751499;81;21332;-80
2020/12/22 08:39:26;;;;;;;55.58;26.42;;;;;;;1.69;69.94;103083.06;1764414;81;21313;-81
2020/12/22 08:42:02;;;;;;;60.97;28.50;;;;;;;1.66;69.97;103081.95;1735076;82;21174;-81
2020/12/22 08:44:35;;;;;;;73.03;33.53;;;;;;;1.65;70.08;103078.87;1725455;82;21382;-80
2020/12/22 08:47:13;;;;;;;45.53;22.60;;;;;;;1.71;70.20;103070.60;1709872;83;21264;-80
2020/12/22 08:49:47;;;;;;;44.13;21.97;;;;;;;1.76;69.96;103068.27;1720920;83;21478;-80
2020/12/22 08:52:22;;;;;;;44.83;22.27;;;;;;;1.75;69.67;103061.06;1717237;83;21660;-81
2020/12/22 08:55:01;;;;;;;42.27;21.27;;;;;;;1.69;69.76;103061.16;1736042;82;21332;-81
2020/12/22 08:57:34;;;;;;;62.37;22.77;;;;;;;1.66;69.86;103061.95;1704205;83;21406;-82
2020/12/22 09:00:16;;;;;;;46.03;20.50;;;;;;;1.62;70.03;103072.33;1731385;82;46238;-83
2020/12/22 09:02:53;;;;;;;46.43;21.57;;;;;;;1.67;70.12;103053.57;1735198;82;21245;-84
2020/12/22 09:05:28;;;;;;;49.07;22.13;;;;;;;1.73;70.06;103061.20;1733276;82;21313;-81
2020/12/22 09:08:01;;;;;;;54.80;23.27;;;;;;;1.79;69.94;103052.94;1732004;81;21400;-83
2020/12/22 09:10:33;;;;;;;;;;;;;;;1.84;69.80;103057.48;1727923;83;21875;-81
2020/12/22 09:13:16;;;;;;;49.50;21.90;;;;;;;1.88;69.79;103047.94;1700538;83;20498;-83
2020/12/22 09:15:58;;;;;;;40.60;18.10;;;;;;;1.89;69.41;103047.80;1714377;83;21388;-84
2020/12/22 09:18:31;;;;;;;44.00;20.00;;;;;;;1.85;69.32;103036.77;1730180;82;21234;-83
2020/12/22 09:21:07;;;;;;;56.00;23.95;;;;;;;1.79;69.54;103038.72;1722661;83;21325;-83
2020/12/22 09:23:45;;;;;;;63.73;26.03;;;;;;;1.81;69.70;103042.69;1723713;83;21879;-83
2020/12/22 09:26:18;;;;;;;50.73;23.33;;;;;;;1.83;69.73;103031.11;1715444;83;21379;-81
2020/12/22 09:28:50;;;;;;;46.33;23.80;;;;;;;1.84;69.73;103030.94;1715740;83;21336;-81
2020/12/22 09:31:27;;;;;;;44.13;21.50;;;;;;;1.89;69.75;103029.16;1694473;84;21758;-82
2020/12/22 09:34:00;;;;;;;48.33;21.67;;;;;;;1.90;69.77;103029.52;1719192;83;21808;-83
2020/12/22 09:36:34;;;;;;;54.95;23.67;;;;;;;1.87;69.67;103018.83;1715681;83;21194;-82
2020/12/22 09:39:07;;;;;;;45.03;20.63;;;;;;;1.80;69.79;103024.05;1718371;83;21336;-83
2020/12/22 09:41:44;;;;;;;46.55;21.65;;;;;;;1.76;70.05;103006.67;1710164;83;21365;-83
2020/12/22 09:44:19;;;;;;;48.83;21.97;;;;;;;1.79;70.12;103017.34;1714048;83;21403;-82
2020/12/22 09:46:54;;;;;;;46.15;21.02;;;;;;;1.83;70.13;103005.10;1716186;83;21380;-84
2020/12/22 09:49:27;;;;;;;46.63;23.37;;;;;;;1.85;70.06;103007.17;1689460;84;21198;-82
2020/12/22 09:52:01;;;;;;;55.20;22.10;;;;;;;1.86;69.97;102997.95;1678474;84;21210;-83
2020/12/22 09:54:34;;;;;;;46.73;23.13;;;;;;;1.86;69.79;103000.69;1711262;83;21321;-83
2020/12/22 09:57:07;;;;;;;50.87;22.13;;;;;;;1.79;69.88;103000.39;1719706;83;21389;-84
2020/12/22 09:59:40;;;;;;;50.70;23.27;;;;;;;1.74;70.04;102995.02;1716308;83;21473;-83
2020/12/22 10:02:13;;;;;;;49.75;21.00;;;;;;;1.66;70.28;102993.52;1687243;85;21396;-83
2020/12/22 10:04:46;;;;;;;54.43;24.30;;;;;;;1.60;70.56;102994.95;1679341;84;21317;-81
2020/12/22 10:07:19;;;;;;;49.50;21.13;;;;;;;1.57;70.85;102988.91;1690951;84;21238;-84
2020/12/22 10:09:51;;;;;;;43.23;21.15;;;;;;;1.60;70.97;102984.52;1708777;83;21377;-84
2020/12/22 10:12:24;;;;;;;36.37;19.50;;;;;;;1.65;70.86;102984.44;1698671;83;21388;-81
2020/12/22 10:14:57;;;;;;;46.13;22.30;;;;;;;1.68;70.93;102979.17;1669959;86;21705;-83
2020/12/22 10:17:31;;;;;;;46.30;22.32;;;;;;;1.74;71.00;102973.98;1705455;83;21337;-80
2020/12/22 10:20:04;;;;;;;43.97;20.10;;;;;;;1.80;70.76;102970.66;1693776;84;21373;-81
2020/12/22 10:22:38;;;;;;;43.47;21.10;;;;;;;1.83;70.68;102968.14;1661076;86;21642;-83
2020/12/22 10:25:11;;;;;;;58.15;24.90;;;;;;;1.90;70.78;102963.79;1713873;83;21199;-82
2020/12/22 10:27:44;;;;;;;60.00;25.33;;;;;;;1.99;70.71;102962.88;1692168;84;21837;-85
2020/12/22 10:30:17;;;;;;;57.83;24.40;;;;;;;2.05;70.45;102959.05;1672778;83;21334;-81
2020/12/22 10:32:50;;;;;;;;;;;;;;;2.05;70.36;102953.58;1741371;82;21803;-83
2020/12/22 10:35:23;;;;;;;51.83;23.83;;;;;;;2.10;70.53;102951.75;1734308;83;20198;-83
2020/12/22 10:37:55;;;;;;;61.95;23.12;;;;;;;2.14;70.52;102951.82;1717999;83;21848;-83
2020/12/22 10:40:29;;;;;;;48.20;20.07;;;;;;;2.19;70.43;102949.46;1710606;83;21383;-84
2020/12/22 10:43:02;;;;;;;53.57;23.10;;;;;;;2.23;70.34;102946.30;1710310;83;21195;-82
2020/12/22 10:45:35;;;;;;;54.90;23.87;;;;;;;2.29;70.31;102944.81;1695913;84;21215;-83
2020/12/22 10:48:09;;;;;;;50.90;22.30;;;;;;;2.35;70.20;102949.69;1721480;82;21689;-84
2020/12/22 10:50:44;;;;;;;59.47;24.77;;;;;;;2.37;69.90;102945.79;1738730;81;21213;-84
2020/12/22 10:53:16;;;;;;;64.17;28.42;;;;;;;2.35;69.81;102945.58;1721484;82;22101;-82
2020/12/22 10:55:49;;;;;;;;;;;;;;;2.36;69.89;102941.81;1741283;82;21192;-82
2020/12/22 10:58:22;;;;;;;57.53;25.50;;;;;;;2.35;69.83;102937.36;1738697;82;20383;-81
2020/12/22 11:00:54;;;;;;;54.48;23.95;;;;;;;2.33;69.85;102939.40;1739039;82;21656;-82
2020/12/22 11:03:27;;;;;;;52.87;24.20;;;;;;;2.38;69.81;102941.18;1738943;82;21217;-80
2020/12/22 11:08:49;;;;;;;64.13;24.27;;;;;;;2.36;69.62;102939.08;1740449;81;21327;-81
2020/12/22 11:11:24;;;;;;;59.90;25.25;;;;;;;2.32;69.75;102930.83;1742243;82;21826;-80
2020/12/22 11:13:59;;;;;;;59.80;24.90;;;;;;;2.27;69.58;102936.73;1733215;81;21195;-80
2020/12/22 11:16:32;;;;;;;58.83;24.23;;;;;;;2.20;69.80;102934.25;1699060;83;21877;-78
2020/12/22 11:19:05;;;;;;;64.53;26.15;;;;;;;2.23;69.87;102934.46;1712851;83;21334;-79
2020/12/22 11:21:37;;;;;;;59.57;23.07;;;;;;;2.24;69.92;102930.20;1716487;83;21351;-81
2020/12/22 11:24:10;;;;;;;53.53;24.50;;;;;;;2.29;70.06;102931.11;1720441;83;21383;-81
2020/12/22 11:26:43;;;;;;;57.67;23.97;;;;;;;2.33;69.92;102929.81;1718913;82;21359;-83
2020/12/22 11:29:15;;;;;;;61.67;25.00;;;;;;;2.36;69.83;102939.08;1717051;82;21361;-82
2020/12/22 11:31:50;;;;;;;;;;;;;;;2.36;69.76;102925.37;1728707;82;21366;-83
2020/12/22 11:34:23;;;;;;;60.60;25.80;;;;;;;2.37;69.65;102927.09;1705596;84;20282;-81
2020/12/22 11:36:56;;;;;;;69.63;29.07;;;;;;;2.37;69.67;102934.83;1721158;83;21225;-81
2020/12/22 11:39:29;;;;;;;60.20;27.53;;;;;;;2.42;69.69;102938.47;1724616;83;22303;-81
2020/12/22 11:42:09;;;;;;;68.42;28.83;;;;;;;2.47;69.66;102939.76;1736923;82;21434;-81
2020/12/22 11:44:38;;;;;;;68.33;29.03;;;;;;;2.45;69.53;102943.66;1735654;81;21177;-82
2020/12/22 11:47:11;;;;;;;62.62;27.42;;;;;;;2.44;69.55;102939.20;1702946;84;22159;-82
2020/12/22 11:49:46;;;;;;;59.57;24.30;;;;;;;2.44;69.52;102936.47;1711924;83;21250;-81
2020/12/22 11:52:20;;;;;;;61.70;27.20;;;;;;;2.44;69.59;102940.58;1738023;82;21477;-79
2020/12/22 11:54:53;;;;;;;68.42;28.17;;;;;;;2.41;69.44;102934.01;1735610;82;22165;-81